sensor_id;sensor_type;location;lat;lon;timestamp;P1;durP1;ratioP1;P2;durP2;ratioP2
70433;SDS011;57876;47.792;12.960;2022-08-19T00:00:14;8.02;;;4.10;;
70433;SDS011;57876;47.792;12.960;2022-08-19T00:02:40;7.50;;;3.72;;
70433;SDS011;57876;47.792;12.960;2022-08-19T00:05:05;7.70;;;4.20;;
70433;SDS011;57876;47.792;12.960;2022-08-19T00:07:30;8.13;;;4.03;;
70433;SDS011;57876;47.792;12.960;2022-08-19T00:09:54;8.03;;;3.70;;
70433;SDS011;57876;47.792;12.960;2022-08-19T00:12:18;8.77;;;3.90;;
70433;SDS011;57876;47.792;12.960;2022-08-19T00:14:43;8.10;;;3.63;;
70433;SDS011;57876;47.792;12.960;2022-08-19T00:17:07;8.20;;;4.20;;
70433;SDS011;57876;47.792;12.960;2022-08-19T00:19:33;7.38;;;3.80;;
70433;SDS011;57876;47.792;12.960;2022-08-19T00:21:59;7.70;;;3.97;;
70433;SDS011;57876;47.792;12.960;2022-08-19T00:24:24;8.57;;;3.83;;
70433;SDS011;57876;47.792;12.960;2022-08-19T00:26:49;7.50;;;3.53;;
70433;SDS011;57876;47.792;12.960;2022-08-19T00:29:15;7.10;;;3.67;;
70433;SDS011;57876;47.792;12.960;2022-08-19T00:31:42;7.50;;;4.13;;
70433;SDS011;57876;47.792;12.960;2022-08-19T00:34:07;7.47;;;3.53;;
70433;SDS011;57876;47.792;12.960;2022-08-19T00:36:31;8.10;;;4.17;;
70433;SDS011;57876;47.792;12.960;2022-08-19T00:38:57;7.75;;;3.85;;
70433;SDS011;57876;47.792;12.960;2022-08-19T00:41:21;7.90;;;3.83;;
70433;SDS011;57876;47.792;12.960;2022-08-19T00:44:05;6.82;;;3.45;;
70433;SDS011;57876;47.792;12.960;2022-08-19T00:46:35;8.13;;;3.92;;
70433;SDS011;57876;47.792;12.960;2022-08-19T00:49:03;7.82;;;4.22;;
70433;SDS011;57876;47.792;12.960;2022-08-19T00:51:33;8.53;;;3.70;;
70433;SDS011;57876;47.792;12.960;2022-08-19T00:53:58;9.43;;;4.55;;
70433;SDS011;57876;47.792;12.960;2022-08-19T00:56:25;7.65;;;3.70;;
70433;SDS011;57876;47.792;12.960;2022-08-19T00:58:50;9.68;;;3.92;;
70433;SDS011;57876;47.792;12.960;2022-08-19T01:01:15;7.67;;;3.87;;
70433;SDS011;57876;47.792;12.960;2022-08-19T01:03:39;9.27;;;3.80;;
70433;SDS011;57876;47.792;12.960;2022-08-19T01:06:04;7.33;;;3.73;;
70433;SDS011;57876;47.792;12.960;2022-08-19T01:08:29;7.00;;;3.50;;
70433;SDS011;57876;47.792;12.960;2022-08-19T01:10:54;7.77;;;4.03;;
70433;SDS011;57876;47.792;12.960;2022-08-19T01:13:26;7.88;;;3.47;;
70433;SDS011;57876;47.792;12.960;2022-08-19T01:15:58;8.00;;;3.90;;
70433;SDS011;57876;47.792;12.960;2022-08-19T01:18:26;9.85;;;3.90;;
70433;SDS011;57876;47.792;12.960;2022-08-19T01:20:52;8.20;;;4.00;;
70433;SDS011;57876;47.792;12.960;2022-08-19T01:23:20;9.00;;;4.00;;
70433;SDS011;57876;47.792;12.960;2022-08-19T01:25:46;7.95;;;3.70;;
70433;SDS011;57876;47.792;12.960;2022-08-19T01:30:44;10.35;;;4.25;;
70433;SDS011;57876;47.792;12.960;2022-08-19T01:33:09;7.75;;;4.00;;
70433;SDS011;57876;47.792;12.960;2022-08-19T01:35:34;8.60;;;3.80;;
70433;SDS011;57876;47.792;12.960;2022-08-19T01:38:00;7.38;;;3.80;;
70433;SDS011;57876;47.792;12.960;2022-08-19T01:40:32;8.40;;;3.90;;
70433;SDS011;57876;47.792;12.960;2022-08-19T01:42:59;8.63;;;4.15;;
70433;SDS011;57876;47.792;12.960;2022-08-19T01:45:24;8.00;;;4.10;;
70433;SDS011;57876;47.792;12.960;2022-08-19T01:47:51;8.20;;;3.50;;
70433;SDS011;57876;47.792;12.960;2022-08-19T01:50:16;8.88;;;3.80;;
70433;SDS011;57876;47.792;12.960;2022-08-19T01:52:41;7.83;;;3.80;;
70433;SDS011;57876;47.792;12.960;2022-08-19T01:55:09;7.13;;;3.55;;
70433;SDS011;57876;47.792;12.960;2022-08-19T01:57:36;7.95;;;3.90;;
70433;SDS011;57876;47.792;12.960;2022-08-19T02:00:04;8.63;;;3.78;;
70433;SDS011;57876;47.792;12.960;2022-08-19T02:02:31;7.90;;;3.80;;
70433;SDS011;57876;47.792;12.960;2022-08-19T02:04:56;7.23;;;3.90;;
70433;SDS011;57876;47.792;12.960;2022-08-19T02:07:21;8.48;;;3.97;;
70433;SDS011;57876;47.792;12.960;2022-08-19T02:09:45;7.80;;;3.87;;
70433;SDS011;57876;47.792;12.960;2022-08-19T02:12:11;7.78;;;4.00;;
70433;SDS011;57876;47.792;12.960;2022-08-19T02:14:35;8.63;;;3.50;;
70433;SDS011;57876;47.792;12.960;2022-08-19T02:17:00;7.97;;;3.70;;
70433;SDS011;57876;47.792;12.960;2022-08-19T02:19:25;9.40;;;3.70;;
70433;SDS011;57876;47.792;12.960;2022-08-19T02:21:49;8.50;;;3.90;;
70433;SDS011;57876;47.792;12.960;2022-08-19T02:24:13;7.80;;;3.60;;
70433;SDS011;57876;47.792;12.960;2022-08-19T02:26:38;7.27;;;3.80;;
70433;SDS011;57876;47.792;12.960;2022-08-19T02:29:02;7.32;;;3.53;;
70433;SDS011;57876;47.792;12.960;2022-08-19T02:31:30;8.20;;;3.80;;
70433;SDS011;57876;47.792;12.960;2022-08-19T02:33:55;7.97;;;3.92;;
70433;SDS011;57876;47.792;12.960;2022-08-19T02:36:20;7.97;;;3.73;;
70433;SDS011;57876;47.792;12.960;2022-08-19T02:38:45;7.97;;;3.33;;
70433;SDS011;57876;47.792;12.960;2022-08-19T02:41:14;7.53;;;3.80;;
70433;SDS011;57876;47.792;12.960;2022-08-19T02:43:40;7.00;;;3.50;;
70433;SDS011;57876;47.792;12.960;2022-08-19T02:46:16;7.43;;;3.50;;
70433;SDS011;57876;47.792;12.960;2022-08-19T02:48:45;8.93;;;3.60;;
70433;SDS011;57876;47.792;12.960;2022-08-19T02:51:15;7.70;;;3.50;;
70433;SDS011;57876;47.792;12.960;2022-08-19T02:53:43;8.10;;;3.80;;
70433;SDS011;57876;47.792;12.960;2022-08-19T02:56:08;7.95;;;3.45;;
70433;SDS011;57876;47.792;12.960;2022-08-19T02:58:32;7.67;;;3.73;;
70433;SDS011;57876;47.792;12.960;2022-08-19T03:00:57;7.30;;;3.60;;
70433;SDS011;57876;47.792;12.960;2022-08-19T03:03:21;8.80;;;4.03;;
70433;SDS011;57876;47.792;12.960;2022-08-19T03:05:46;7.50;;;3.40;;
70433;SDS011;57876;47.792;12.960;2022-08-19T03:08:11;7.83;;;3.60;;
70433;SDS011;57876;47.792;12.960;2022-08-19T03:10:41;6.95;;;3.63;;
70433;SDS011;57876;47.792;12.960;2022-08-19T03:13:08;7.30;;;3.70;;
70433;SDS011;57876;47.792;12.960;2022-08-19T03:15:32;7.03;;;3.40;;
70433;SDS011;57876;47.792;12.960;2022-08-19T03:17:57;8.07;;;3.73;;
70433;SDS011;57876;47.792;12.960;2022-08-19T03:20:21;7.87;;;3.67;;
70433;SDS011;57876;47.792;12.960;2022-08-19T03:22:45;7.20;;;3.60;;
70433;SDS011;57876;47.792;12.960;2022-08-19T03:25:10;7.93;;;3.80;;
70433;SDS011;57876;47.792;12.960;2022-08-19T03:27:35;8.27;;;3.25;;
70433;SDS011;57876;47.792;12.960;2022-08-19T03:30:00;8.10;;;3.57;;
70433;SDS011;57876;47.792;12.960;2022-08-19T03:32:25;7.28;;;3.47;;
70433;SDS011;57876;47.792;12.960;2022-08-19T03:34:49;7.70;;;3.60;;
70433;SDS011;57876;47.792;12.960;2022-08-19T03:37:14;7.57;;;3.30;;
70433;SDS011;57876;47.792;12.960;2022-08-19T03:39:39;7.47;;;3.73;;
70433;SDS011;57876;47.792;12.960;2022-08-19T03:42:04;7.88;;;3.58;;
70433;SDS011;57876;47.792;12.960;2022-08-19T03:44:29;7.53;;;3.40;;
70433;SDS011;57876;47.792;12.960;2022-08-19T03:46:55;8.02;;;3.72;;
70433;SDS011;57876;47.792;12.960;2022-08-19T03:49:21;8.30;;;3.40;;
70433;SDS011;57876;47.792;12.960;2022-08-19T03:51:48;6.63;;;3.13;;
70433;SDS011;57876;47.792;12.960;2022-08-19T03:54:14;7.50;;;3.60;;
70433;SDS011;57876;47.792;12.960;2022-08-19T03:56:41;7.70;;;3.83;;
70433;SDS011;57876;47.792;12.960;2022-08-19T03:59:09;6.70;;;3.25;;
70433;SDS011;57876;47.792;12.960;2022-08-19T04:01:35;6.95;;;3.45;;
70433;SDS011;57876;47.792;12.960;2022-08-19T04:04:00;7.73;;;3.43;;
70433;SDS011;57876;47.792;12.960;2022-08-19T04:06:26;7.13;;;3.47;;
70433;SDS011;57876;47.792;12.960;2022-08-19T04:08:54;8.00;;;3.63;;
70433;SDS011;57876;47.792;12.960;2022-08-19T04:11:21;7.72;;;3.35;;
70433;SDS011;57876;47.792;12.960;2022-08-19T04:13:49;7.60;;;3.60;;
70433;SDS011;57876;47.792;12.960;2022-08-19T04:16:15;6.97;;;3.42;;
70433;SDS011;57876;47.792;12.960;2022-08-19T04:18:39;7.43;;;3.77;;
70433;SDS011;57876;47.792;12.960;2022-08-19T04:21:05;6.75;;;3.50;;
70433;SDS011;57876;47.792;12.960;2022-08-19T04:23:30;7.30;;;3.30;;
70433;SDS011;57876;47.792;12.960;2022-08-19T04:25:55;7.35;;;3.45;;
70433;SDS011;57876;47.792;12.960;2022-08-19T04:28:20;6.93;;;3.47;;
70433;SDS011;57876;47.792;12.960;2022-08-19T04:30:46;8.23;;;3.80;;
70433;SDS011;57876;47.792;12.960;2022-08-19T04:33:13;10.30;;;3.60;;
70433;SDS011;57876;47.792;12.960;2022-08-19T04:35:40;7.47;;;3.63;;
70433;SDS011;57876;47.792;12.960;2022-08-19T04:38:06;7.80;;;3.50;;
70433;SDS011;57876;47.792;12.960;2022-08-19T04:40:31;7.10;;;3.70;;
70433;SDS011;57876;47.792;12.960;2022-08-19T04:43:14;7.80;;;3.70;;
70433;SDS011;57876;47.792;12.960;2022-08-19T04:45:39;7.47;;;3.43;;
70433;SDS011;57876;47.792;12.960;2022-08-19T04:48:04;8.40;;;3.40;;
70433;SDS011;57876;47.792;12.960;2022-08-19T04:50:29;7.85;;;4.00;;
70433;SDS011;57876;47.792;12.960;2022-08-19T04:52:54;7.83;;;3.73;;
70433;SDS011;57876;47.792;12.960;2022-08-19T04:55:19;7.80;;;4.07;;
70433;SDS011;57876;47.792;12.960;2022-08-19T04:57:43;8.13;;;3.90;;
70433;SDS011;57876;47.792;12.960;2022-08-19T05:00:08;7.87;;;3.50;;
70433;SDS011;57876;47.792;12.960;2022-08-19T05:02:33;7.55;;;3.70;;
70433;SDS011;57876;47.792;12.960;2022-08-19T05:04:58;7.60;;;3.80;;
70433;SDS011;57876;47.792;12.960;2022-08-19T05:07:26;7.85;;;3.78;;
70433;SDS011;57876;47.792;12.960;2022-08-19T05:09:51;8.30;;;3.90;;
70433;SDS011;57876;47.792;12.960;2022-08-19T05:12:16;8.07;;;3.60;;
70433;SDS011;57876;47.792;12.960;2022-08-19T05:14:41;8.07;;;3.60;;
70433;SDS011;57876;47.792;12.960;2022-08-19T05:17:05;8.03;;;3.83;;
70433;SDS011;57876;47.792;12.960;2022-08-19T05:19:29;8.83;;;3.93;;
70433;SDS011;57876;47.792;12.960;2022-08-19T05:22:13;6.95;;;3.60;;
70433;SDS011;57876;47.792;12.960;2022-08-19T05:24:56;7.95;;;3.60;;
70433;SDS011;57876;47.792;12.960;2022-08-19T05:27:20;7.40;;;3.83;;
70433;SDS011;57876;47.792;12.960;2022-08-19T05:29:45;8.33;;;3.80;;
70433;SDS011;57876;47.792;12.960;2022-08-19T05:32:09;7.88;;;3.78;;
70433;SDS011;57876;47.792;12.960;2022-08-19T05:34:34;10.00;;;4.00;;
70433;SDS011;57876;47.792;12.960;2022-08-19T05:37:00;7.00;;;3.63;;
70433;SDS011;57876;47.792;12.960;2022-08-19T05:39:27;9.95;;;4.00;;
70433;SDS011;57876;47.792;12.960;2022-08-19T05:41:57;7.18;;;3.63;;
70433;SDS011;57876;47.792;12.960;2022-08-19T05:44:24;7.90;;;3.90;;
70433;SDS011;57876;47.792;12.960;2022-08-19T05:46:55;7.73;;;3.57;;
70433;SDS011;57876;47.792;12.960;2022-08-19T05:49:21;8.98;;;3.60;;
70433;SDS011;57876;47.792;12.960;2022-08-19T05:51:46;8.30;;;3.77;;
70433;SDS011;57876;47.792;12.960;2022-08-19T05:54:11;7.90;;;3.55;;
70433;SDS011;57876;47.792;12.960;2022-08-19T05:56:37;8.05;;;3.70;;
70433;SDS011;57876;47.792;12.960;2022-08-19T05:59:02;8.82;;;3.83;;
70433;SDS011;57876;47.792;12.960;2022-08-19T06:01:31;8.52;;;3.95;;
70433;SDS011;57876;47.792;12.960;2022-08-19T06:03:55;8.10;;;3.63;;
70433;SDS011;57876;47.792;12.960;2022-08-19T06:06:20;7.67;;;3.47;;
70433;SDS011;57876;47.792;12.960;2022-08-19T06:08:45;7.75;;;3.63;;
70433;SDS011;57876;47.792;12.960;2022-08-19T06:11:16;9.70;;;4.35;;
70433;SDS011;57876;47.792;12.960;2022-08-19T06:13:49;8.57;;;3.83;;
70433;SDS011;57876;47.792;12.960;2022-08-19T06:16:17;8.02;;;3.75;;
70433;SDS011;57876;47.792;12.960;2022-08-19T06:18:46;6.67;;;3.47;;
70433;SDS011;57876;47.792;12.960;2022-08-19T06:21:10;8.32;;;3.95;;
70433;SDS011;57876;47.792;12.960;2022-08-19T06:23:35;7.43;;;3.70;;
70433;SDS011;57876;47.792;12.960;2022-08-19T06:26:00;8.05;;;3.60;;
70433;SDS011;57876;47.792;12.960;2022-08-19T06:28:24;8.43;;;3.70;;
70433;SDS011;57876;47.792;12.960;2022-08-19T06:30:48;7.17;;;3.70;;
70433;SDS011;57876;47.792;12.960;2022-08-19T06:33:14;7.57;;;3.67;;
70433;SDS011;57876;47.792;12.960;2022-08-19T06:35:39;7.87;;;3.73;;
70433;SDS011;57876;47.792;12.960;2022-08-19T06:38:04;8.77;;;3.70;;
70433;SDS011;57876;47.792;12.960;2022-08-19T06:40:29;7.57;;;3.90;;
70433;SDS011;57876;47.792;12.960;2022-08-19T06:42:53;7.13;;;3.40;;
70433;SDS011;57876;47.792;12.960;2022-08-19T06:45:18;8.05;;;3.80;;
70433;SDS011;57876;47.792;12.960;2022-08-19T06:47:44;8.15;;;3.97;;
70433;SDS011;57876;47.792;12.960;2022-08-19T06:50:10;7.93;;;3.78;;
70433;SDS011;57876;47.792;12.960;2022-08-19T06:52:34;7.87;;;3.67;;
70433;SDS011;57876;47.792;12.960;2022-08-19T06:55:00;7.68;;;3.90;;
70433;SDS011;57876;47.792;12.960;2022-08-19T06:57:26;9.53;;;3.93;;
70433;SDS011;57876;47.792;12.960;2022-08-19T06:59:50;7.32;;;3.70;;
70433;SDS011;57876;47.792;12.960;2022-08-19T07:02:15;7.70;;;3.70;;
70433;SDS011;57876;47.792;12.960;2022-08-19T07:04:39;7.53;;;3.57;;
70433;SDS011;57876;47.792;12.960;2022-08-19T07:07:07;7.80;;;3.70;;
70433;SDS011;57876;47.792;12.960;2022-08-19T07:09:37;8.23;;;3.60;;
70433;SDS011;57876;47.792;12.960;2022-08-19T07:12:03;8.65;;;3.85;;
70433;SDS011;57876;47.792;12.960;2022-08-19T07:14:30;7.87;;;3.70;;
70433;SDS011;57876;47.792;12.960;2022-08-19T07:16:55;8.23;;;3.92;;
70433;SDS011;57876;47.792;12.960;2022-08-19T07:19:22;10.27;;;4.53;;
70433;SDS011;57876;47.792;12.960;2022-08-19T07:21:49;7.93;;;3.60;;
70433;SDS011;57876;47.792;12.960;2022-08-19T07:24:16;8.35;;;3.53;;
70433;SDS011;57876;47.792;12.960;2022-08-19T07:26:42;7.82;;;4.05;;
70433;SDS011;57876;47.792;12.960;2022-08-19T07:29:08;8.00;;;3.70;;
70433;SDS011;57876;47.792;12.960;2022-08-19T07:31:33;7.93;;;3.75;;
70433;SDS011;57876;47.792;12.960;2022-08-19T07:34:01;8.48;;;3.92;;
70433;SDS011;57876;47.792;12.960;2022-08-19T07:36:32;9.15;;;4.22;;
70433;SDS011;57876;47.792;12.960;2022-08-19T07:38:58;7.38;;;3.58;;
70433;SDS011;57876;47.792;12.960;2022-08-19T07:41:25;9.07;;;3.87;;
70433;SDS011;57876;47.792;12.960;2022-08-19T07:43:52;8.02;;;4.00;;
70433;SDS011;57876;47.792;12.960;2022-08-19T07:46:17;7.50;;;3.70;;
70433;SDS011;57876;47.792;12.960;2022-08-19T07:48:44;8.57;;;4.10;;
70433;SDS011;57876;47.792;12.960;2022-08-19T07:51:12;9.57;;;3.97;;
70433;SDS011;57876;47.792;12.960;2022-08-19T07:53:39;8.00;;;3.85;;
70433;SDS011;57876;47.792;12.960;2022-08-19T07:56:04;7.67;;;3.73;;
70433;SDS011;57876;47.792;12.960;2022-08-19T07:58:33;8.55;;;3.60;;
70433;SDS011;57876;47.792;12.960;2022-08-19T08:01:01;7.68;;;3.90;;
70433;SDS011;57876;47.792;12.960;2022-08-19T08:03:27;8.10;;;3.90;;
70433;SDS011;57876;47.792;12.960;2022-08-19T08:06:12;8.50;;;3.80;;
70433;SDS011;57876;47.792;12.960;2022-08-19T08:08:57;7.53;;;3.70;;
70433;SDS011;57876;47.792;12.960;2022-08-19T08:11:45;7.30;;;3.60;;
70433;SDS011;57876;47.792;12.960;2022-08-19T08:14:25;8.07;;;4.25;;
70433;SDS011;57876;47.792;12.960;2022-08-19T08:16:55;7.47;;;3.58;;
70433;SDS011;57876;47.792;12.960;2022-08-19T08:19:20;8.20;;;4.07;;
70433;SDS011;57876;47.792;12.960;2022-08-19T08:21:47;8.93;;;4.03;;
70433;SDS011;57876;47.792;12.960;2022-08-19T08:24:13;8.40;;;3.70;;
70433;SDS011;57876;47.792;12.960;2022-08-19T08:26:38;8.38;;;3.67;;
70433;SDS011;57876;47.792;12.960;2022-08-19T08:29:03;10.00;;;4.07;;
70433;SDS011;57876;47.792;12.960;2022-08-19T08:31:28;7.50;;;4.00;;
70433;SDS011;57876;47.792;12.960;2022-08-19T08:33:53;7.30;;;3.83;;
70433;SDS011;57876;47.792;12.960;2022-08-19T08:36:18;8.05;;;3.85;;
70433;SDS011;57876;47.792;12.960;2022-08-19T08:38:43;7.90;;;4.00;;
70433;SDS011;57876;47.792;12.960;2022-08-19T08:43:54;7.87;;;3.60;;
70433;SDS011;57876;47.792;12.960;2022-08-19T08:46:23;7.10;;;3.53;;
70433;SDS011;57876;47.792;12.960;2022-08-19T08:52:26;7.35;;;3.85;;
70433;SDS011;57876;47.792;12.960;2022-08-19T08:54:34;7.55;;;3.30;;
70433;SDS011;57876;47.792;12.960;2022-08-19T08:57:11;7.07;;;3.30;;
70433;SDS011;57876;47.792;12.960;2022-08-19T08:59:40;7.22;;;3.42;;
70433;SDS011;57876;47.792;12.960;2022-08-19T09:02:07;7.18;;;3.10;;
70433;SDS011;57876;47.792;12.960;2022-08-19T09:04:34;7.20;;;3.50;;
70433;SDS011;57876;47.792;12.960;2022-08-19T09:09:37;7.47;;;3.33;;
70433;SDS011;57876;47.792;12.960;2022-08-19T09:15:05;6.93;;;3.40;;
70433;SDS011;57876;47.792;12.960;2022-08-19T09:17:32;7.53;;;3.25;;
70433;SDS011;57876;47.792;12.960;2022-08-19T09:20:04;7.03;;;3.20;;
70433;SDS011;57876;47.792;12.960;2022-08-19T09:22:43;7.00;;;3.37;;
70433;SDS011;57876;47.792;12.960;2022-08-19T09:25:14;8.02;;;3.38;;
70433;SDS011;57876;47.792;12.960;2022-08-19T09:27:41;6.15;;;3.03;;
70433;SDS011;57876;47.792;12.960;2022-08-19T09:30:07;6.90;;;3.25;;
70433;SDS011;57876;47.792;12.960;2022-08-19T09:32:32;6.80;;;2.90;;
70433;SDS011;57876;47.792;12.960;2022-08-19T09:34:57;6.40;;;3.10;;
70433;SDS011;57876;47.792;12.960;2022-08-19T09:37:22;6.20;;;2.90;;
70433;SDS011;57876;47.792;12.960;2022-08-19T09:39:46;6.95;;;3.00;;
70433;SDS011;57876;47.792;12.960;2022-08-19T09:42:11;7.53;;;2.97;;
70433;SDS011;57876;47.792;12.960;2022-08-19T09:44:38;6.53;;;2.92;;
70433;SDS011;57876;47.792;12.960;2022-08-19T09:47:07;6.10;;;2.85;;
70433;SDS011;57876;47.792;12.960;2022-08-19T09:49:33;6.35;;;2.70;;
70433;SDS011;57876;47.792;12.960;2022-08-19T09:51:57;6.20;;;2.97;;
70433;SDS011;57876;47.792;12.960;2022-08-19T09:54:22;6.03;;;2.90;;
70433;SDS011;57876;47.792;12.960;2022-08-19T09:56:47;5.65;;;2.47;;
70433;SDS011;57876;47.792;12.960;2022-08-19T09:59:11;5.97;;;2.60;;
70433;SDS011;57876;47.792;12.960;2022-08-19T10:01:36;6.03;;;2.60;;
70433;SDS011;57876;47.792;12.960;2022-08-19T10:04:00;5.67;;;2.53;;
70433;SDS011;57876;47.792;12.960;2022-08-19T10:06:28;6.20;;;2.67;;
70433;SDS011;57876;47.792;12.960;2022-08-19T10:08:56;6.13;;;2.87;;
70433;SDS011;57876;47.792;12.960;2022-08-19T10:11:21;5.82;;;2.60;;
70433;SDS011;57876;47.792;12.960;2022-08-19T10:13:45;6.77;;;2.60;;
70433;SDS011;57876;47.792;12.960;2022-08-19T10:16:11;5.73;;;2.40;;
70433;SDS011;57876;47.792;12.960;2022-08-19T10:18:38;5.88;;;2.45;;
70433;SDS011;57876;47.792;12.960;2022-08-19T10:21:09;6.30;;;2.45;;
70433;SDS011;57876;47.792;12.960;2022-08-19T10:23:54;5.88;;;2.38;;
70433;SDS011;57876;47.792;12.960;2022-08-19T10:26:22;6.40;;;2.78;;
70433;SDS011;57876;47.792;12.960;2022-08-19T10:28:48;6.17;;;2.37;;
70433;SDS011;57876;47.792;12.960;2022-08-19T10:31:17;6.35;;;2.70;;
70433;SDS011;57876;47.792;12.960;2022-08-19T10:33:44;5.65;;;2.45;;
70433;SDS011;57876;47.792;12.960;2022-08-19T10:36:10;5.63;;;2.40;;
70433;SDS011;57876;47.792;12.960;2022-08-19T10:38:36;5.78;;;2.30;;
70433;SDS011;57876;47.792;12.960;2022-08-19T10:43:54;6.07;;;2.50;;
70433;SDS011;57876;47.792;12.960;2022-08-19T10:46:22;5.85;;;2.58;;
70433;SDS011;57876;47.792;12.960;2022-08-19T10:48:48;6.10;;;2.60;;
70433;SDS011;57876;47.792;12.960;2022-08-19T10:51:13;5.80;;;2.50;;
70433;SDS011;57876;47.792;12.960;2022-08-19T10:53:57;6.10;;;2.40;;
70433;SDS011;57876;47.792;12.960;2022-08-19T10:56:23;7.15;;;2.45;;
70433;SDS011;57876;47.792;12.960;2022-08-19T10:59:06;5.60;;;2.40;;
70433;SDS011;57876;47.792;12.960;2022-08-19T11:01:31;5.40;;;2.27;;
70433;SDS011;57876;47.792;12.960;2022-08-19T11:03:57;5.68;;;2.10;;
70433;SDS011;57876;47.792;12.960;2022-08-19T11:06:23;5.38;;;2.22;;
70433;SDS011;57876;47.792;12.960;2022-08-19T11:08:49;5.65;;;2.50;;
70433;SDS011;57876;47.792;12.960;2022-08-19T11:11:13;6.83;;;2.93;;
70433;SDS011;57876;47.792;12.960;2022-08-19T11:13:39;5.33;;;2.27;;
70433;SDS011;57876;47.792;12.960;2022-08-19T11:16:15;6.35;;;2.45;;
70433;SDS011;57876;47.792;12.960;2022-08-19T11:18:43;5.78;;;2.20;;
70433;SDS011;57876;47.792;12.960;2022-08-19T11:21:14;5.72;;;2.33;;
70433;SDS011;57876;47.792;12.960;2022-08-19T11:23:44;5.47;;;2.15;;
70433;SDS011;57876;47.792;12.960;2022-08-19T11:26:09;5.87;;;2.50;;
70433;SDS011;57876;47.792;12.960;2022-08-19T11:28:34;5.63;;;2.20;;
70433;SDS011;57876;47.792;12.960;2022-08-19T11:31:02;5.47;;;2.25;;
70433;SDS011;57876;47.792;12.960;2022-08-19T11:33:27;5.28;;;2.17;;
70433;SDS011;57876;47.792;12.960;2022-08-19T11:35:52;5.77;;;2.43;;
70433;SDS011;57876;47.792;12.960;2022-08-19T11:38:17;5.50;;;2.20;;
70433;SDS011;57876;47.792;12.960;2022-08-19T11:40:42;6.50;;;2.30;;
70433;SDS011;57876;47.792;12.960;2022-08-19T11:43:06;5.40;;;2.30;;
70433;SDS011;57876;47.792;12.960;2022-08-19T11:45:31;5.47;;;2.33;;
70433;SDS011;57876;47.792;12.960;2022-08-19T11:47:55;5.13;;;1.97;;
70433;SDS011;57876;47.792;12.960;2022-08-19T11:50:21;6.30;;;2.42;;
70433;SDS011;57876;47.792;12.960;2022-08-19T11:52:47;5.63;;;2.30;;
70433;SDS011;57876;47.792;12.960;2022-08-19T11:55:13;5.28;;;2.20;;
70433;SDS011;57876;47.792;12.960;2022-08-19T11:57:38;5.10;;;2.17;;
70433;SDS011;57876;47.792;12.960;2022-08-19T12:00:05;5.60;;;2.28;;
70433;SDS011;57876;47.792;12.960;2022-08-19T12:02:31;5.63;;;2.08;;
70433;SDS011;57876;47.792;12.960;2022-08-19T12:04:55;5.37;;;2.20;;
70433;SDS011;57876;47.792;12.960;2022-08-19T12:07:20;5.83;;;2.27;;
70433;SDS011;57876;47.792;12.960;2022-08-19T12:09:44;5.70;;;2.40;;
70433;SDS011;57876;47.792;12.960;2022-08-19T12:12:09;5.20;;;2.10;;
70433;SDS011;57876;47.792;12.960;2022-08-19T12:14:33;5.20;;;2.10;;
70433;SDS011;57876;47.792;12.960;2022-08-19T12:16:58;5.20;;;2.15;;
70433;SDS011;57876;47.792;12.960;2022-08-19T12:19:22;5.40;;;2.10;;
70433;SDS011;57876;47.792;12.960;2022-08-19T12:21:48;6.05;;;2.30;;
70433;SDS011;57876;47.792;12.960;2022-08-19T12:24:13;5.20;;;1.93;;
70433;SDS011;57876;47.792;12.960;2022-08-19T12:26:38;5.30;;;2.22;;
70433;SDS011;57876;47.792;12.960;2022-08-19T12:29:02;5.13;;;2.00;;
70433;SDS011;57876;47.792;12.960;2022-08-19T12:31:28;5.50;;;2.30;;
70433;SDS011;57876;47.792;12.960;2022-08-19T12:33:53;5.30;;;2.13;;
70433;SDS011;57876;47.792;12.960;2022-08-19T12:36:17;5.67;;;2.30;;
70433;SDS011;57876;47.792;12.960;2022-08-19T12:38:42;5.30;;;2.00;;
70433;SDS011;57876;47.792;12.960;2022-08-19T12:41:09;5.30;;;2.10;;
70433;SDS011;57876;47.792;12.960;2022-08-19T12:43:36;5.00;;;2.00;;
70433;SDS011;57876;47.792;12.960;2022-08-19T12:46:02;5.60;;;1.88;;
70433;SDS011;57876;47.792;12.960;2022-08-19T12:48:30;5.50;;;2.17;;
70433;SDS011;57876;47.792;12.960;2022-08-19T12:50:56;5.30;;;2.15;;
70433;SDS011;57876;47.792;12.960;2022-08-19T12:53:20;5.60;;;2.10;;
70433;SDS011;57876;47.792;12.960;2022-08-19T12:55:45;5.30;;;1.83;;
70433;SDS011;57876;47.792;12.960;2022-08-19T12:58:09;5.87;;;1.90;;
70433;SDS011;57876;47.792;12.960;2022-08-19T13:00:34;5.00;;;1.85;;
70433;SDS011;57876;47.792;12.960;2022-08-19T13:02:59;5.23;;;2.00;;
70433;SDS011;57876;47.792;12.960;2022-08-19T13:05:26;5.50;;;2.22;;
70433;SDS011;57876;47.792;12.960;2022-08-19T13:07:53;5.38;;;2.15;;
70433;SDS011;57876;47.792;12.960;2022-08-19T13:10:24;5.47;;;2.03;;
70433;SDS011;57876;47.792;12.960;2022-08-19T13:12:51;5.13;;;1.90;;
70433;SDS011;57876;47.792;12.960;2022-08-19T13:15:17;4.95;;;1.83;;
70433;SDS011;57876;47.792;12.960;2022-08-19T13:17:44;5.10;;;1.90;;
70433;SDS011;57876;47.792;12.960;2022-08-19T13:20:09;5.43;;;2.00;;
70433;SDS011;57876;47.792;12.960;2022-08-19T13:22:35;5.93;;;2.60;;
70433;SDS011;57876;47.792;12.960;2022-08-19T13:25:00;5.30;;;1.98;;
70433;SDS011;57876;47.792;12.960;2022-08-19T13:27:25;5.43;;;2.13;;
70433;SDS011;57876;47.792;12.960;2022-08-19T13:29:49;5.30;;;1.87;;
70433;SDS011;57876;47.792;12.960;2022-08-19T13:32:32;5.10;;;2.05;;
70433;SDS011;57876;47.792;12.960;2022-08-19T13:35:16;5.13;;;1.90;;
70433;SDS011;57876;47.792;12.960;2022-08-19T13:37:41;5.20;;;2.00;;
70433;SDS011;57876;47.792;12.960;2022-08-19T13:40:05;5.30;;;2.00;;
70433;SDS011;57876;47.792;12.960;2022-08-19T13:42:31;5.18;;;2.05;;
70433;SDS011;57876;47.792;12.960;2022-08-19T13:44:56;5.20;;;1.97;;
70433;SDS011;57876;47.792;12.960;2022-08-19T13:47:22;5.18;;;1.90;;
70433;SDS011;57876;47.792;12.960;2022-08-19T13:49:46;5.70;;;2.30;;
70433;SDS011;57876;47.792;12.960;2022-08-19T13:52:11;5.03;;;1.90;;
70433;SDS011;57876;47.792;12.960;2022-08-19T13:54:36;5.20;;;2.20;;
70433;SDS011;57876;47.792;12.960;2022-08-19T13:57:00;4.80;;;1.90;;
70433;SDS011;57876;47.792;12.960;2022-08-19T13:59:25;4.90;;;1.80;;
70433;SDS011;57876;47.792;12.960;2022-08-19T14:01:49;5.30;;;1.90;;
70433;SDS011;57876;47.792;12.960;2022-08-19T14:04:13;5.17;;;1.97;;
70433;SDS011;57876;47.792;12.960;2022-08-19T14:06:38;5.10;;;2.07;;
70433;SDS011;57876;47.792;12.960;2022-08-19T14:09:03;5.10;;;1.90;;
70433;SDS011;57876;47.792;12.960;2022-08-19T14:11:29;5.22;;;2.03;;
70433;SDS011;57876;47.792;12.960;2022-08-19T14:13:53;5.63;;;1.93;;
70433;SDS011;57876;47.792;12.960;2022-08-19T14:16:17;4.90;;;1.90;;
70433;SDS011;57876;47.792;12.960;2022-08-19T14:18:42;5.20;;;2.10;;
70433;SDS011;57876;47.792;12.960;2022-08-19T14:21:06;5.10;;;2.07;;
70433;SDS011;57876;47.792;12.960;2022-08-19T14:23:32;5.18;;;1.88;;
70433;SDS011;57876;47.792;12.960;2022-08-19T14:26:04;5.50;;;1.85;;
70433;SDS011;57876;47.792;12.960;2022-08-19T14:28:35;5.10;;;1.90;;
70433;SDS011;57876;47.792;12.960;2022-08-19T14:31:00;5.68;;;2.15;;
70433;SDS011;57876;47.792;12.960;2022-08-19T14:33:24;5.53;;;2.10;;
70433;SDS011;57876;47.792;12.960;2022-08-19T14:35:48;6.20;;;2.13;;
70433;SDS011;57876;47.792;12.960;2022-08-19T14:38:19;4.80;;;1.77;;
70433;SDS011;57876;47.792;12.960;2022-08-19T14:40:44;5.30;;;2.03;;
70433;SDS011;57876;47.792;12.960;2022-08-19T14:43:08;5.10;;;2.03;;
70433;SDS011;57876;47.792;12.960;2022-08-19T14:45:34;5.00;;;1.80;;